sensor_id;sensor_type;location;lat;lon;timestamp;P1;durP1;ratioP1;P2;durP2;ratioP2
22916;SDS011;11624;53.250;7.456;2022-11-20T00:00:54;22.87;;;9.40;;
22916;SDS011;11624;53.250;7.456;2022-11-20T00:03:24;25.53;;;9.87;;
22916;SDS011;11624;53.250;7.456;2022-11-20T00:05:52;21.23;;;9.93;;
22916;SDS011;11624;53.250;7.456;2022-11-20T00:08:20;20.47;;;9.87;;
22916;SDS011;11624;53.250;7.456;2022-11-20T00:10:48;23.03;;;9.97;;
22916;SDS011;11624;53.250;7.456;2022-11-20T00:13:16;19.03;;;9.03;;
22916;SDS011;11624;53.250;7.456;2022-11-20T00:15:44;22.13;;;10.47;;
22916;SDS011;11624;53.250;7.456;2022-11-20T00:18:12;20.53;;;9.73;;
22916;SDS011;11624;53.250;7.456;2022-11-20T00:20:42;21.20;;;9.83;;
22916;SDS011;11624;53.250;7.456;2022-11-20T00:23:10;22.47;;;9.80;;
22916;SDS011;11624;53.250;7.456;2022-11-20T00:25:38;19.90;;;10.07;;
22916;SDS011;11624;53.250;7.456;2022-11-20T00:28:06;20.93;;;9.97;;
22916;SDS011;11624;53.250;7.456;2022-11-20T00:30:34;22.70;;;10.20;;
22916;SDS011;11624;53.250;7.456;2022-11-20T00:33:02;21.67;;;9.90;;
22916;SDS011;11624;53.250;7.456;2022-11-20T00:35:30;20.33;;;9.77;;
22916;SDS011;11624;53.250;7.456;2022-11-20T00:37:59;18.40;;;8.67;;
22916;SDS011;11624;53.250;7.456;2022-11-20T00:40:27;22.13;;;9.50;;
22916;SDS011;11624;53.250;7.456;2022-11-20T00:42:55;19.03;;;8.53;;
22916;SDS011;11624;53.250;7.456;2022-11-20T00:45:23;20.97;;;9.77;;
22916;SDS011;11624;53.250;7.456;2022-11-20T00:47:51;17.80;;;8.57;;
22916;SDS011;11624;53.250;7.456;2022-11-20T00:50:19;20.17;;;8.77;;
22916;SDS011;11624;53.250;7.456;2022-11-20T00:52:47;23.17;;;9.63;;
22916;SDS011;11624;53.250;7.456;2022-11-20T00:55:17;18.93;;;8.80;;
22916;SDS011;11624;53.250;7.456;2022-11-20T00:57:45;21.23;;;8.70;;
22916;SDS011;11624;53.250;7.456;2022-11-20T01:00:13;20.07;;;9.20;;
22916;SDS011;11624;53.250;7.456;2022-11-20T01:02:41;22.53;;;9.17;;
22916;SDS011;11624;53.250;7.456;2022-11-20T01:05:09;22.80;;;10.23;;
22916;SDS011;11624;53.250;7.456;2022-11-20T01:07:37;22.50;;;10.20;;
22916;SDS011;11624;53.250;7.456;2022-11-20T01:10:06;20.47;;;9.63;;
22916;SDS011;11624;53.250;7.456;2022-11-20T01:12:36;20.30;;;9.80;;
22916;SDS011;11624;53.250;7.456;2022-11-20T01:15:04;21.20;;;9.80;;
22916;SDS011;11624;53.250;7.456;2022-11-20T01:17:33;22.43;;;9.80;;
22916;SDS011;11624;53.250;7.456;2022-11-20T01:20:01;22.27;;;10.20;;
22916;SDS011;11624;53.250;7.456;2022-11-20T01:22:29;18.47;;;9.30;;
22916;SDS011;11624;53.250;7.456;2022-11-20T01:24:57;20.77;;;9.70;;
22916;SDS011;11624;53.250;7.456;2022-11-20T01:27:25;20.93;;;10.00;;
22916;SDS011;11624;53.250;7.456;2022-11-20T01:29:54;21.73;;;10.17;;
22916;SDS011;11624;53.250;7.456;2022-11-20T01:32:26;21.10;;;10.23;;
22916;SDS011;11624;53.250;7.456;2022-11-20T01:34:54;22.00;;;10.67;;
22916;SDS011;11624;53.250;7.456;2022-11-20T01:37:22;22.17;;;10.27;;
22916;SDS011;11624;53.250;7.456;2022-11-20T01:39:50;20.27;;;10.23;;
22916;SDS011;11624;53.250;7.456;2022-11-20T01:42:18;24.47;;;10.50;;
22916;SDS011;11624;53.250;7.456;2022-11-20T01:48:07;24.13;;;11.23;;
22916;SDS011;11624;53.250;7.456;2022-11-20T01:50:35;25.47;;;10.60;;
22916;SDS011;11624;53.250;7.456;2022-11-20T01:53:03;21.93;;;10.00;;
22916;SDS011;11624;53.250;7.456;2022-11-20T01:55:36;21.47;;;9.97;;
22916;SDS011;11624;53.250;7.456;2022-11-20T01:58:07;23.57;;;10.37;;
22916;SDS011;11624;53.250;7.456;2022-11-20T02:00:36;21.60;;;10.03;;
22916;SDS011;11624;53.250;7.456;2022-11-20T02:03:05;20.07;;;10.27;;
22916;SDS011;11624;53.250;7.456;2022-11-20T02:05:38;25.17;;;10.17;;
22916;SDS011;11624;53.250;7.456;2022-11-20T02:08:12;19.33;;;9.87;;
22916;SDS011;11624;53.250;7.456;2022-11-20T02:10:41;20.73;;;9.30;;
22916;SDS011;11624;53.250;7.456;2022-11-20T02:13:09;27.57;;;11.00;;
22916;SDS011;11624;53.250;7.456;2022-11-20T02:15:55;22.37;;;9.43;;
22916;SDS011;11624;53.250;7.456;2022-11-20T02:18:24;21.77;;;11.17;;
22916;SDS011;11624;53.250;7.456;2022-11-20T02:20:53;20.03;;;8.90;;
22916;SDS011;11624;53.250;7.456;2022-11-20T02:23:27;19.57;;;9.20;;
22916;SDS011;11624;53.250;7.456;2022-11-20T02:26:02;19.97;;;9.00;;
22916;SDS011;11624;53.250;7.456;2022-11-20T02:28:33;19.93;;;8.77;;
22916;SDS011;11624;53.250;7.456;2022-11-20T02:31:01;19.93;;;9.67;;
22916;SDS011;11624;53.250;7.456;2022-11-20T02:33:29;20.97;;;9.63;;
22916;SDS011;11624;53.250;7.456;2022-11-20T02:35:57;20.87;;;8.83;;
22916;SDS011;11624;53.250;7.456;2022-11-20T02:38:25;21.57;;;8.33;;
22916;SDS011;11624;53.250;7.456;2022-11-20T02:40:53;19.30;;;8.50;;
22916;SDS011;11624;53.250;7.456;2022-11-20T02:43:23;21.83;;;9.60;;
22916;SDS011;11624;53.250;7.456;2022-11-20T02:45:51;21.60;;;8.67;;
22916;SDS011;11624;53.250;7.456;2022-11-20T02:48:19;21.13;;;9.43;;
22916;SDS011;11624;53.250;7.456;2022-11-20T02:50:50;21.10;;;9.57;;
22916;SDS011;11624;53.250;7.456;2022-11-20T02:53:18;20.57;;;9.40;;
22916;SDS011;11624;53.250;7.456;2022-11-20T02:55:46;20.93;;;9.50;;
22916;SDS011;11624;53.250;7.456;2022-11-20T02:58:14;19.00;;;8.73;;
22916;SDS011;11624;53.250;7.456;2022-11-20T03:00:44;23.13;;;10.33;;
22916;SDS011;11624;53.250;7.456;2022-11-20T03:03:12;20.77;;;9.40;;
22916;SDS011;11624;53.250;7.456;2022-11-20T03:05:40;21.53;;;10.20;;
22916;SDS011;11624;53.250;7.456;2022-11-20T03:08:08;22.40;;;9.60;;
22916;SDS011;11624;53.250;7.456;2022-11-20T03:10:36;20.80;;;9.73;;
22916;SDS011;11624;53.250;7.456;2022-11-20T03:13:04;22.67;;;10.20;;
22916;SDS011;11624;53.250;7.456;2022-11-20T03:15:32;20.40;;;10.07;;
22916;SDS011;11624;53.250;7.456;2022-11-20T03:18:02;20.13;;;9.70;;
22916;SDS011;11624;53.250;7.456;2022-11-20T03:20:30;25.30;;;10.83;;
22916;SDS011;11624;53.250;7.456;2022-11-20T03:23:00;23.87;;;10.80;;
22916;SDS011;11624;53.250;7.456;2022-11-20T03:25:28;22.73;;;10.30;;
22916;SDS011;11624;53.250;7.456;2022-11-20T03:27:56;21.03;;;10.33;;
22916;SDS011;11624;53.250;7.456;2022-11-20T03:30:25;23.20;;;10.93;;
22916;SDS011;11624;53.250;7.456;2022-11-20T03:32:56;22.30;;;10.47;;
22916;SDS011;11624;53.250;7.456;2022-11-20T03:35:26;21.87;;;10.47;;
22916;SDS011;11624;53.250;7.456;2022-11-20T03:37:53;24.40;;;11.27;;
22916;SDS011;11624;53.250;7.456;2022-11-20T03:40:21;21.67;;;10.10;;
22916;SDS011;11624;53.250;7.456;2022-11-20T03:42:49;23.13;;;10.43;;
22916;SDS011;11624;53.250;7.456;2022-11-20T03:45:18;21.67;;;10.83;;
22916;SDS011;11624;53.250;7.456;2022-11-20T03:47:46;21.17;;;10.83;;
22916;SDS011;11624;53.250;7.456;2022-11-20T03:50:14;20.97;;;10.23;;
22916;SDS011;11624;53.250;7.456;2022-11-20T03:52:44;22.87;;;11.67;;
22916;SDS011;11624;53.250;7.456;2022-11-20T03:55:12;21.67;;;10.60;;
22916;SDS011;11624;53.250;7.456;2022-11-20T03:57:40;22.10;;;10.27;;
22916;SDS011;11624;53.250;7.456;2022-11-20T04:00:08;20.60;;;10.63;;
22916;SDS011;11624;53.250;7.456;2022-11-20T04:02:37;20.23;;;10.30;;
22916;SDS011;11624;53.250;7.456;2022-11-20T04:05:05;22.80;;;10.57;;
22916;SDS011;11624;53.250;7.456;2022-11-20T04:07:34;23.70;;;11.43;;
22916;SDS011;11624;53.250;7.456;2022-11-20T04:10:04;23.83;;;11.73;;
22916;SDS011;11624;53.250;7.456;2022-11-20T04:12:33;21.53;;;10.50;;
22916;SDS011;11624;53.250;7.456;2022-11-20T04:15:01;23.13;;;10.67;;
22916;SDS011;11624;53.250;7.456;2022-11-20T04:17:29;22.43;;;10.73;;
22916;SDS011;11624;53.250;7.456;2022-11-20T04:19:57;23.87;;;11.40;;
22916;SDS011;11624;53.250;7.456;2022-11-20T04:22:25;24.73;;;11.40;;
22916;SDS011;11624;53.250;7.456;2022-11-20T04:24:53;29.50;;;12.27;;
22916;SDS011;11624;53.250;7.456;2022-11-20T04:27:22;23.47;;;11.07;;
22916;SDS011;11624;53.250;7.456;2022-11-20T04:29:50;25.07;;;11.17;;
22916;SDS011;11624;53.250;7.456;2022-11-20T04:32:18;25.00;;;11.70;;
22916;SDS011;11624;53.250;7.456;2022-11-20T04:34:46;22.60;;;10.73;;
22916;SDS011;11624;53.250;7.456;2022-11-20T04:37:14;23.93;;;11.37;;
22916;SDS011;11624;53.250;7.456;2022-11-20T04:39:42;22.07;;;11.27;;
22916;SDS011;11624;53.250;7.456;2022-11-20T04:42:11;24.53;;;12.07;;
22916;SDS011;11624;53.250;7.456;2022-11-20T04:44:58;23.70;;;11.47;;
22916;SDS011;11624;53.250;7.456;2022-11-20T04:47:26;21.17;;;10.30;;
22916;SDS011;11624;53.250;7.456;2022-11-20T04:49:54;23.27;;;11.83;;
22916;SDS011;11624;53.250;7.456;2022-11-20T04:52:22;22.27;;;11.63;;
22916;SDS011;11624;53.250;7.456;2022-11-20T04:54:50;24.13;;;11.73;;
22916;SDS011;11624;53.250;7.456;2022-11-20T04:57:19;23.73;;;11.40;;
22916;SDS011;11624;53.250;7.456;2022-11-20T04:59:47;22.17;;;11.03;;
22916;SDS011;11624;53.250;7.456;2022-11-20T05:02:17;23.33;;;10.70;;
22916;SDS011;11624;53.250;7.456;2022-11-20T05:04:45;20.97;;;11.03;;
22916;SDS011;11624;53.250;7.456;2022-11-20T05:07:13;23.97;;;10.87;;
22916;SDS011;11624;53.250;7.456;2022-11-20T05:09:41;22.93;;;10.83;;
22916;SDS011;11624;53.250;7.456;2022-11-20T05:12:09;23.63;;;11.23;;
22916;SDS011;11624;53.250;7.456;2022-11-20T05:14:37;22.73;;;10.90;;
22916;SDS011;11624;53.250;7.456;2022-11-20T05:17:05;22.63;;;11.20;;
22916;SDS011;11624;53.250;7.456;2022-11-20T05:19:38;22.83;;;11.20;;
22916;SDS011;11624;53.250;7.456;2022-11-20T05:22:06;26.57;;;11.63;;
22916;SDS011;11624;53.250;7.456;2022-11-20T05:24:34;22.27;;;11.40;;
22916;SDS011;11624;53.250;7.456;2022-11-20T05:27:02;20.80;;;10.97;;
22916;SDS011;11624;53.250;7.456;2022-11-20T05:29:30;21.63;;;10.53;;
22916;SDS011;11624;53.250;7.456;2022-11-20T05:31:58;22.93;;;10.90;;
22916;SDS011;11624;53.250;7.456;2022-11-20T05:34:26;21.93;;;10.80;;
22916;SDS011;11624;53.250;7.456;2022-11-20T05:36:56;22.03;;;10.87;;
22916;SDS011;11624;53.250;7.456;2022-11-20T05:39:24;22.53;;;10.37;;
22916;SDS011;11624;53.250;7.456;2022-11-20T05:41:52;23.43;;;10.83;;
22916;SDS011;11624;53.250;7.456;2022-11-20T05:44:46;23.13;;;10.53;;
22916;SDS011;11624;53.250;7.456;2022-11-20T05:47:14;23.17;;;10.60;;
22916;SDS011;11624;53.250;7.456;2022-11-20T05:49:42;24.47;;;10.70;;
22916;SDS011;11624;53.250;7.456;2022-11-20T05:52:12;21.37;;;9.87;;
22916;SDS011;11624;53.250;7.456;2022-11-20T05:54:40;24.63;;;10.87;;
22916;SDS011;11624;53.250;7.456;2022-11-20T05:57:08;24.50;;;10.60;;
22916;SDS011;11624;53.250;7.456;2022-11-20T05:59:36;22.43;;;11.00;;
22916;SDS011;11624;53.250;7.456;2022-11-20T06:02:04;22.03;;;11.40;;
22916;SDS011;11624;53.250;7.456;2022-11-20T06:04:32;23.50;;;10.90;;
22916;SDS011;11624;53.250;7.456;2022-11-20T06:07:00;24.13;;;11.63;;
22916;SDS011;11624;53.250;7.456;2022-11-20T06:09:30;23.23;;;10.40;;
22916;SDS011;11624;53.250;7.456;2022-11-20T06:11:58;24.70;;;11.23;;
22916;SDS011;11624;53.250;7.456;2022-11-20T06:14:26;21.50;;;9.47;;
22916;SDS011;11624;53.250;7.456;2022-11-20T06:16:54;22.00;;;10.97;;
22916;SDS011;11624;53.250;7.456;2022-11-20T06:19:22;23.00;;;10.00;;
22916;SDS011;11624;53.250;7.456;2022-11-20T06:21:50;21.73;;;10.10;;
22916;SDS011;11624;53.250;7.456;2022-11-20T06:24:18;24.17;;;9.77;;
22916;SDS011;11624;53.250;7.456;2022-11-20T06:26:48;18.63;;;9.50;;
22916;SDS011;11624;53.250;7.456;2022-11-20T06:29:16;20.60;;;9.47;;
22916;SDS011;11624;53.250;7.456;2022-11-20T06:31:44;21.80;;;10.13;;
22916;SDS011;11624;53.250;7.456;2022-11-20T06:34:12;19.73;;;9.83;;
22916;SDS011;11624;53.250;7.456;2022-11-20T06:36:40;20.27;;;9.70;;
22916;SDS011;11624;53.250;7.456;2022-11-20T06:39:08;19.20;;;9.57;;
22916;SDS011;11624;53.250;7.456;2022-11-20T06:41:36;25.37;;;10.30;;
22916;SDS011;11624;53.250;7.456;2022-11-20T06:44:06;22.17;;;10.47;;
22916;SDS011;11624;53.250;7.456;2022-11-20T06:46:34;19.80;;;9.53;;
22916;SDS011;11624;53.250;7.456;2022-11-20T06:49:02;19.93;;;9.87;;
22916;SDS011;11624;53.250;7.456;2022-11-20T06:51:30;20.73;;;10.30;;
22916;SDS011;11624;53.250;7.456;2022-11-20T06:53:58;20.37;;;9.57;;
22916;SDS011;11624;53.250;7.456;2022-11-20T06:56:27;22.13;;;9.83;;
22916;SDS011;11624;53.250;7.456;2022-11-20T06:58:55;20.93;;;9.53;;
22916;SDS011;11624;53.250;7.456;2022-11-20T07:01:24;19.30;;;9.60;;
22916;SDS011;11624;53.250;7.456;2022-11-20T07:03:53;21.00;;;9.87;;
22916;SDS011;11624;53.250;7.456;2022-11-20T07:06:21;20.63;;;10.17;;
22916;SDS011;11624;53.250;7.456;2022-11-20T07:08:50;20.67;;;10.20;;
22916;SDS011;11624;53.250;7.456;2022-11-20T07:11:19;21.53;;;10.30;;
22916;SDS011;11624;53.250;7.456;2022-11-20T07:13:47;22.33;;;10.70;;
22916;SDS011;11624;53.250;7.456;2022-11-20T07:16:15;21.57;;;10.73;;
22916;SDS011;11624;53.250;7.456;2022-11-20T07:18:44;22.00;;;11.20;;
22916;SDS011;11624;53.250;7.456;2022-11-20T07:21:16;22.00;;;10.67;;
22916;SDS011;11624;53.250;7.456;2022-11-20T07:23:44;22.20;;;10.93;;
22916;SDS011;11624;53.250;7.456;2022-11-20T07:26:12;24.20;;;11.63;;
22916;SDS011;11624;53.250;7.456;2022-11-20T07:28:43;24.77;;;11.87;;
22916;SDS011;11624;53.250;7.456;2022-11-20T07:31:12;23.77;;;12.10;;
22916;SDS011;11624;53.250;7.456;2022-11-20T07:33:46;25.20;;;12.57;;
22916;SDS011;11624;53.250;7.456;2022-11-20T07:36:14;25.37;;;12.93;;
22916;SDS011;11624;53.250;7.456;2022-11-20T07:38:42;25.37;;;14.03;;
22916;SDS011;11624;53.250;7.456;2022-11-20T07:41:10;22.23;;;11.13;;
22916;SDS011;11624;53.250;7.456;2022-11-20T07:43:38;23.13;;;11.00;;
22916;SDS011;11624;53.250;7.456;2022-11-20T07:46:07;23.60;;;11.83;;
22916;SDS011;11624;53.250;7.456;2022-11-20T07:48:35;24.27;;;12.40;;
22916;SDS011;11624;53.250;7.456;2022-11-20T07:51:04;24.67;;;12.60;;
22916;SDS011;11624;53.250;7.456;2022-11-20T07:53:32;30.30;;;15.00;;
22916;SDS011;11624;53.250;7.456;2022-11-20T07:56:01;26.07;;;13.10;;
22916;SDS011;11624;53.250;7.456;2022-11-20T07:58:29;23.80;;;11.87;;
22916;SDS011;11624;53.250;7.456;2022-11-20T08:01:01;31.10;;;14.30;;
22916;SDS011;11624;53.250;7.456;2022-11-20T08:03:30;35.93;;;16.00;;
22916;SDS011;11624;53.250;7.456;2022-11-20T08:05:58;34.90;;;15.47;;
22916;SDS011;11624;53.250;7.456;2022-11-20T08:08:28;27.33;;;14.67;;
22916;SDS011;11624;53.250;7.456;2022-11-20T08:10:59;24.23;;;13.53;;
22916;SDS011;11624;53.250;7.456;2022-11-20T08:13:41;24.90;;;12.87;;
22916;SDS011;11624;53.250;7.456;2022-11-20T08:16:27;26.43;;;12.07;;
22916;SDS011;11624;53.250;7.456;2022-11-20T08:18:55;23.80;;;12.03;;
22916;SDS011;11624;53.250;7.456;2022-11-20T08:21:23;32.20;;;16.87;;
22916;SDS011;11624;53.250;7.456;2022-11-20T08:23:53;26.50;;;14.10;;
22916;SDS011;11624;53.250;7.456;2022-11-20T08:26:21;25.17;;;13.20;;
22916;SDS011;11624;53.250;7.456;2022-11-20T08:28:52;25.83;;;13.17;;
22916;SDS011;11624;53.250;7.456;2022-11-20T08:31:21;27.07;;;13.20;;
22916;SDS011;11624;53.250;7.456;2022-11-20T08:33:50;23.00;;;11.57;;
22916;SDS011;11624;53.250;7.456;2022-11-20T08:36:18;24.60;;;12.20;;
22916;SDS011;11624;53.250;7.456;2022-11-20T08:38:47;22.77;;;11.13;;
22916;SDS011;11624;53.250;7.456;2022-11-20T08:41:17;24.00;;;12.43;;
22916;SDS011;11624;53.250;7.456;2022-11-20T08:43:55;22.90;;;12.07;;
22916;SDS011;11624;53.250;7.456;2022-11-20T08:46:25;23.83;;;11.77;;
22916;SDS011;11624;53.250;7.456;2022-11-20T08:48:55;22.77;;;11.23;;
22916;SDS011;11624;53.250;7.456;2022-11-20T08:51:23;22.37;;;11.90;;
22916;SDS011;11624;53.250;7.456;2022-11-20T08:53:51;22.03;;;11.43;;
22916;SDS011;11624;53.250;7.456;2022-11-20T08:56:20;22.33;;;10.90;;
22916;SDS011;11624;53.250;7.456;2022-11-20T08:58:49;23.63;;;11.13;;
22916;SDS011;11624;53.250;7.456;2022-11-20T09:01:37;21.73;;;10.93;;
22916;SDS011;11624;53.250;7.456;2022-11-20T09:04:05;21.07;;;11.13;;
22916;SDS011;11624;53.250;7.456;2022-11-20T09:06:34;20.90;;;10.70;;
22916;SDS011;11624;53.250;7.456;2022-11-20T09:09:02;21.33;;;10.30;;
22916;SDS011;11624;53.250;7.456;2022-11-20T09:11:34;20.17;;;9.40;;
22916;SDS011;11624;53.250;7.456;2022-11-20T09:14:02;22.87;;;10.10;;
22916;SDS011;11624;53.250;7.456;2022-11-20T09:16:30;21.57;;;10.40;;
22916;SDS011;11624;53.250;7.456;2022-11-20T09:18:58;20.47;;;9.87;;
22916;SDS011;11624;53.250;7.456;2022-11-20T09:21:47;19.97;;;9.73;;
22916;SDS011;11624;53.250;7.456;2022-11-20T09:24:15;20.53;;;10.00;;
22916;SDS011;11624;53.250;7.456;2022-11-20T09:26:44;21.87;;;10.50;;
22916;SDS011;11624;53.250;7.456;2022-11-20T09:29:12;21.83;;;10.30;;
22916;SDS011;11624;53.250;7.456;2022-11-20T09:31:40;20.97;;;10.53;;
22916;SDS011;11624;53.250;7.456;2022-11-20T09:34:08;19.87;;;9.50;;
22916;SDS011;11624;53.250;7.456;2022-11-20T09:36:36;23.97;;;9.90;;
22916;SDS011;11624;53.250;7.456;2022-11-20T09:39:04;19.87;;;8.80;;
22916;SDS011;11624;53.250;7.456;2022-11-20T09:41:39;19.43;;;9.47;;
22916;SDS011;11624;53.250;7.456;2022-11-20T09:44:47;20.47;;;9.60;;
22916;SDS011;11624;53.250;7.456;2022-11-20T09:47:22;20.90;;;9.67;;
22916;SDS011;11624;53.250;7.456;2022-11-20T09:50:01;21.70;;;9.97;;
22916;SDS011;11624;53.250;7.456;2022-11-20T09:52:41;21.20;;;9.93;;
22916;SDS011;11624;53.250;7.456;2022-11-20T09:55:17;20.70;;;9.53;;
22916;SDS011;11624;53.250;7.456;2022-11-20T09:57:47;19.53;;;8.87;;
22916;SDS011;11624;53.250;7.456;2022-11-20T10:00:18;21.17;;;9.27;;
22916;SDS011;11624;53.250;7.456;2022-11-20T10:02:48;19.30;;;9.53;;
22916;SDS011;11624;53.250;7.456;2022-11-20T10:05:23;21.10;;;9.83;;
22916;SDS011;11624;53.250;7.456;2022-11-20T10:07:59;21.27;;;9.70;;
22916;SDS011;11624;53.250;7.456;2022-11-20T10:10:36;21.33;;;9.47;;
22916;SDS011;11624;53.250;7.456;2022-11-20T10:13:17;20.33;;;8.80;;
22916;SDS011;11624;53.250;7.456;2022-11-20T10:15:57;19.57;;;8.80;;
22916;SDS011;11624;53.250;7.456;2022-11-20T10:18:41;18.93;;;8.63;;
22916;SDS011;11624;53.250;7.456;2022-11-20T10:21:22;19.50;;;9.07;;
22916;SDS011;11624;53.250;7.456;2022-11-20T10:24:22;18.77;;;8.23;;
22916;SDS011;11624;53.250;7.456;2022-11-20T10:26:59;18.63;;;8.37;;
22916;SDS011;11624;53.250;7.456;2022-11-20T10:29:34;19.77;;;9.37;;
22916;SDS011;11624;53.250;7.456;2022-11-20T10:32:07;22.17;;;9.23;;
22916;SDS011;11624;53.250;7.456;2022-11-20T10:34:43;17.37;;;8.60;;
22916;SDS011;11624;53.250;7.456;2022-11-20T10:37:19;19.50;;;8.87;;
22916;SDS011;11624;53.250;7.456;2022-11-20T10:39:51;19.03;;;8.93;;
22916;SDS011;11624;53.250;7.456;2022-11-20T10:42:26;18.80;;;8.93;;
22916;SDS011;11624;53.250;7.456;2022-11-20T10:45:02;16.93;;;8.17;;
22916;SDS011;11624;53.250;7.456;2022-11-20T10:47:41;19.70;;;8.30;;
22916;SDS011;11624;53.250;7.456;2022-11-20T10:50:09;16.80;;;7.67;;
22916;SDS011;11624;53.250;7.456;2022-11-20T10:52:49;17.97;;;8.63;;
22916;SDS011;11624;53.250;7.456;2022-11-20T10:55:25;20.17;;;8.77;;
22916;SDS011;11624;53.250;7.456;2022-11-20T10:58:00;18.67;;;8.40;;
22916;SDS011;11624;53.250;7.456;2022-11-20T11:00:34;19.00;;;9.00;;
22916;SDS011;11624;53.250;7.456;2022-11-20T11:03:07;18.60;;;8.90;;
22916;SDS011;11624;53.250;7.456;2022-11-20T11:05:50;18.77;;;8.63;;
22916;SDS011;11624;53.250;7.456;2022-11-20T11:08:22;18.47;;;8.27;;
22916;SDS011;11624;53.250;7.456;2022-11-20T11:10:54;20.97;;;9.17;;
22916;SDS011;11624;53.250;7.456;2022-11-20T11:13:25;18.17;;;8.40;;
22916;SDS011;11624;53.250;7.456;2022-11-20T11:15:56;19.30;;;8.53;;
22916;SDS011;11624;53.250;7.456;2022-11-20T11:18:25;20.43;;;8.70;;
22916;SDS011;11624;53.250;7.456;2022-11-20T11:20:54;19.90;;;9.23;;
22916;SDS011;11624;53.250;7.456;2022-11-20T11:23:29;18.20;;;8.63;;
22916;SDS011;11624;53.250;7.456;2022-11-20T11:26:01;18.30;;;8.53;;
22916;SDS011;11624;53.250;7.456;2022-11-20T11:28:30;18.53;;;8.23;;
22916;SDS011;11624;53.250;7.456;2022-11-20T11:31:00;19.17;;;7.67;;
22916;SDS011;11624;53.250;7.456;2022-11-20T11:33:28;63.10;;;22.23;;
22916;SDS011;11624;53.250;7.456;2022-11-20T11:36:00;77.47;;;28.30;;
22916;SDS011;11624;53.250;7.456;2022-11-20T11:38:32;22.80;;;10.03;;
22916;SDS011;11624;53.250;7.456;2022-11-20T11:41:03;21.83;;;9.17;;
22916;SDS011;11624;53.250;7.456;2022-11-20T11:43:32;17.63;;;8.77;;
22916;SDS011;11624;53.250;7.456;2022-11-20T11:46:29;20.97;;;9.13;;
22916;SDS011;11624;53.250;7.456;2022-11-20T11:48:59;16.23;;;7.87;;
22916;SDS011;11624;53.250;7.456;2022-11-20T11:51:32;20.47;;;9.30;;
22916;SDS011;11624;53.250;7.456;2022-11-20T11:54:09;20.67;;;9.70;;
22916;SDS011;11624;53.250;7.456;2022-11-20T11:56:44;19.10;;;8.73;;
22916;SDS011;11624;53.250;7.456;2022-11-20T11:59:15;19.13;;;8.90;;
22916;SDS011;11624;53.250;7.456;2022-11-20T12:01:52;17.90;;;8.63;;
22916;SDS011;11624;53.250;7.456;2022-11-20T12:04:27;21.43;;;10.07;;
22916;SDS011;11624;53.250;7.456;2022-11-20T12:07:08;18.67;;;9.50;;
22916;SDS011;11624;53.250;7.456;2022-11-20T12:10:03;23.67;;;12.10;;
22916;SDS011;11624;53.250;7.456;2022-11-20T12:12:35;22.30;;;11.40;;
22916;SDS011;11624;53.250;7.456;2022-11-20T12:15:07;19.87;;;9.77;;
22916;SDS011;11624;53.250;7.456;2022-11-20T12:17:39;19.33;;;9.80;;
22916;SDS011;11624;53.250;7.456;2022-11-20T12:20:11;25.50;;;15.20;;
22916;SDS011;11624;53.250;7.456;2022-11-20T12:22:42;20.40;;;11.03;;
22916;SDS011;11624;53.250;7.456;2022-11-20T12:25:20;18.63;;;9.57;;
22916;SDS011;11624;53.250;7.456;2022-11-20T12:27:55;19.60;;;9.23;;
22916;SDS011;11624;53.250;7.456;2022-11-20T12:31:01;18.57;;;8.80;;
22916;SDS011;11624;53.250;7.456;2022-11-20T12:34:00;20.07;;;9.70;;
22916;SDS011;11624;53.250;7.456;2022-11-20T12:36:39;20.07;;;9.43;;
22916;SDS011;11624;53.250;7.456;2022-11-20T12:39:16;19.43;;;9.07;;
22916;SDS011;11624;53.250;7.456;2022-11-20T12:42:01;20.57;;;9.20;;
22916;SDS011;11624;53.250;7.456;2022-11-20T12:45:10;17.50;;;8.37;;
22916;SDS011;11624;53.250;7.456;2022-11-20T12:47:57;19.07;;;8.87;;
22916;SDS011;11624;53.250;7.456;2022-11-20T12:50:51;19.13;;;9.50;;
22916;SDS011;11624;53.250;7.456;2022-11-20T12:53:42;19.87;;;8.97;;
22916;SDS011;11624;53.250;7.456;2022-11-20T12:56:19;19.00;;;8.53;;
22916;SDS011;11624;53.250;7.456;2022-11-20T12:59:02;19.30;;;9.73;;
22916;SDS011;11624;53.250;7.456;2022-11-20T13:01:43;17.73;;;8.17;;
22916;SDS011;11624;53.250;7.456;2022-11-20T13:04:19;21.27;;;10.57;;
22916;SDS011;11624;53.250;7.456;2022-11-20T13:07:03;23.57;;;11.63;;
22916;SDS011;11624;53.250;7.456;2022-11-20T13:09:34;19.23;;;9.77;;
22916;SDS011;11624;53.250;7.456;2022-11-20T13:12:08;22.10;;;10.77;;
22916;SDS011;11624;53.250;7.456;2022-11-20T13:14:42;18.97;;;9.60;;
22916;SDS011;11624;53.250;7.456;2022-11-20T13:17:16;17.27;;;8.03;;
22916;SDS011;11624;53.250;7.456;2022-11-20T13:19:51;17.20;;;8.03;;
22916;SDS011;11624;53.250;7.456;2022-11-20T13:22:25;18.83;;;8.43;;
22916;SDS011;11624;53.250;7.456;2022-11-20T13:24:54;18.93;;;8.50;;
22916;SDS011;11624;53.250;7.456;2022-11-20T13:27:23;20.30;;;8.87;;
22916;SDS011;11624;53.250;7.456;2022-11-20T13:30:02;16.77;;;8.03;;
22916;SDS011;11624;53.250;7.456;2022-11-20T13:32:47;18.90;;;9.40;;
22916;SDS011;11624;53.250;7.456;2022-11-20T13:35:24;18.40;;;8.27;;
22916;SDS011;11624;53.250;7.456;2022-11-20T13:38:06;16.50;;;7.43;;
22916;SDS011;11624;53.250;7.456;2022-11-20T13:40:36;17.77;;;7.67;;
22916;SDS011;11624;53.250;7.456;2022-11-20T13:43:18;16.30;;;6.97;;
22916;SDS011;11624;53.250;7.456;2022-11-20T13:45:58;17.73;;;8.20;;
22916;SDS011;11624;53.250;7.456;2022-11-20T13:48:29;15.67;;;6.57;;
22916;SDS011;11624;53.250;7.456;2022-11-20T13:51:03;18.73;;;7.37;;
22916;SDS011;11624;53.250;7.456;2022-11-20T13:56:43;17.33;;;7.63;;
22916;SDS011;11624;53.250;7.456;2022-11-20T13:59:24;17.87;;;8.17;;
22916;SDS011;11624;53.250;7.456;2022-11-20T14:02:10;18.07;;;8.43;;
22916;SDS011;11624;53.250;7.456;2022-11-20T14:04:42;16.50;;;7.17;;
22916;SDS011;11624;53.250;7.456;2022-11-20T14:07:13;16.67;;;7.47;;
22916;SDS011;11624;53.250;7.456;2022-11-20T14:09:50;17.00;;;6.93;;
22916;SDS011;11624;53.250;7.456;2022-11-20T14:12:21;15.77;;;6.73;;
22916;SDS011;11624;53.250;7.456;2022-11-20T14:14:54;16.37;;;7.47;;
22916;SDS011;11624;53.250;7.456;2022-11-20T14:17:23;20.20;;;9.27;;
22916;SDS011;11624;53.250;7.456;2022-11-20T14:19:57;20.43;;;9.10;;
22916;SDS011;11624;53.250;7.456;2022-11-20T14:22:29;24.67;;;10.77;;
22916;SDS011;11624;53.250;7.456;2022-11-20T14:25:02;23.33;;;11.53;;
22916;SDS011;11624;53.250;7.456;2022-11-20T14:27:34;20.13;;;9.63;;
22916;SDS011;11624;53.250;7.456;2022-11-20T14:30:05;18.77;;;8.37;;
22916;SDS011;11624;53.250;7.456;2022-11-20T14:32:34;18.23;;;8.40;;
22916;SDS011;11624;53.250;7.456;2022-11-20T14:35:06;17.90;;;8.30;;
22916;SDS011;11624;53.250;7.456;2022-11-20T14:37:37;21.03;;;8.60;;
22916;SDS011;11624;53.250;7.456;2022-11-20T14:43:00;19.70;;;8.47;;
22916;SDS011;11624;53.250;7.456;2022-11-20T14:45:29;18.70;;;8.83;;
22916;SDS011;11624;53.250;7.456;2022-11-20T14:47:58;20.07;;;9.13;;
22916;SDS011;11624;53.250;7.456;2022-11-20T14:50:28;18.70;;;9.33;;
22916;SDS011;11624;53.250;7.456;2022-11-20T14:52:57;21.60;;;10.03;;
22916;SDS011;11624;53.250;7.456;2022-11-20T14:55:28;21.53;;;10.60;;
22916;SDS011;11624;53.250;7.456;2022-11-20T14:57:59;22.67;;;10.93;;
22916;SDS011;11624;53.250;7.456;2022-11-20T15:00:30;42.30;;;20.00;;
22916;SDS011;11624;53.250;7.456;2022-11-20T15:02:59;28.87;;;13.77;;